createdAt,value
2017-01-17T00:00:14.308Z,99.99
2017-01-17T00:00:55.944Z,99.99
2017-01-17T00:02:45.257Z,99.99
2017-01-17T00:03:27.117Z,99.99
2017-01-17T00:04:08.765Z,99.99
2017-01-17T00:06:29.358Z,99.99
2017-01-17T00:08:29.313Z,99.99
2017-01-17T00:09:11.017Z,99.99
2017-01-17T00:09:52.742Z,99.99
2017-01-17T00:10:34.360Z,99.99
2017-01-17T00:11:16.121Z,99.99
2017-01-17T00:13:16.167Z,99.99
2017-01-17T00:13:57.908Z,99.99
2017-01-17T00:14:39.437Z,99.99
2017-01-17T00:15:21.148Z,99.99
2017-01-17T00:16:02.929Z,99.99
2017-01-17T00:16:44.559Z,99.99
2017-01-17T00:17:26.325Z,99.99
2017-01-17T00:19:47.091Z,99.99
2017-01-17T00:20:28.809Z,99.99
2017-01-17T00:21:10.467Z,99.99
2017-01-17T00:21:52.211Z,99.99
2017-01-17T00:22:33.732Z,99.99
2017-01-17T00:24:49.104Z,99.99
2017-01-17T00:25:30.753Z,99.99
2017-01-17T00:26:12.438Z,99.99
2017-01-17T00:26:54.147Z,99.99
2017-01-17T00:27:35.908Z,99.99
2017-01-17T00:28:17.587Z,99.99
2017-01-17T00:30:06.996Z,99.99
2017-01-17T00:30:48.754Z,99.99
2017-01-17T00:31:30.350Z,99.99
2017-01-17T00:32:12.133Z,99.99
2017-01-17T00:32:53.781Z,99.99
2017-01-17T00:33:35.548Z,99.99
2017-01-17T00:34:17.324Z,99.99
2017-01-17T00:34:58.944Z,99.99
2017-01-17T00:35:40.629Z,99.99
2017-01-17T00:37:35.413Z,99.99
2017-01-17T00:38:17.145Z,99.99
2017-01-17T00:38:58.876Z,99.99
2017-01-17T00:39:40.584Z,99.99
2017-01-17T00:40:22.407Z,99.99
2017-01-17T00:41:04.042Z,99.99
2017-01-17T00:41:45.806Z,99.99
2017-01-17T00:42:27.562Z,99.99
2017-01-17T00:43:09.269Z,99.99
2017-01-17T00:43:51.013Z,99.99
2017-01-17T00:44:32.730Z,99.99
2017-01-17T00:45:14.431Z,99.99
2017-01-17T00:45:56.167Z,99.99
2017-01-17T00:47:45.602Z,99.99
2017-01-17T00:48:27.206Z,99.99
2017-01-17T00:50:16.667Z,99.99
2017-01-17T00:50:58.142Z,99.99
2017-01-17T00:51:39.770Z,99.99
2017-01-17T00:52:21.532Z,99.99
2017-01-17T00:54:16.283Z,99.99
2017-01-17T00:54:58.046Z,99.99
2017-01-17T00:55:39.640Z,99.99
2017-01-17T00:56:21.395Z,99.99
2017-01-17T00:57:03.128Z,99.99
2017-01-17T00:58:52.560Z,99.99
2017-01-17T01:00:52.513Z,99.99
2017-01-17T01:01:34.229Z,99.99
2017-01-17T01:02:15.868Z,99.99
2017-01-17T01:04:31.115Z,99.99
2017-01-17T01:05:12.305Z,99.99
2017-01-17T01:05:54.054Z,99.99
2017-01-17T01:06:35.800Z,99.99
2017-01-17T01:08:30.362Z,99.99
2017-01-17T01:10:50.915Z,99.99
2017-01-17T01:11:32.445Z,99.99
2017-01-17T01:12:14.238Z,99.99
2017-01-17T01:12:55.910Z,99.99
2017-01-17T01:14:55.913Z,99.99
2017-01-17T01:15:37.539Z,99.99
2017-01-17T01:17:32.241Z,99.99
2017-01-17T01:18:14.001Z,99.99
2017-01-17T01:18:55.654Z,99.99
2017-01-17T01:19:37.414Z,99.99
2017-01-17T01:20:19.072Z,99.99
2017-01-17T01:21:00.824Z,99.99
2017-01-17T01:21:42.588Z,99.99
2017-01-17T01:22:24.310Z,99.99
2017-01-17T01:23:06.077Z,99.99
2017-01-17T01:23:47.836Z,99.99
2017-01-17T01:24:29.449Z,99.99
2017-01-17T01:25:11.156Z,99.99
2017-01-17T01:25:52.921Z,99.99
2017-01-17T01:26:34.688Z,99.99
2017-01-17T01:27:16.440Z,99.99
2017-01-17T01:29:37.017Z,99.99
2017-01-17T01:30:18.754Z,99.99
2017-01-17T01:31:00.464Z,99.99
2017-01-17T01:31:42.191Z,99.99
2017-01-17T01:32:23.766Z,99.99
2017-01-17T01:33:05.463Z,99.99
2017-01-17T01:33:47.066Z,99.99
2017-01-17T01:34:28.737Z,99.99
2017-01-17T01:36:23.430Z,99.99
2017-01-17T01:38:44.130Z,99.99
2017-01-17T01:39:25.936Z,99.99
2017-01-17T01:40:07.718Z,99.99
2017-01-17T01:40:49.472Z,99.99
2017-01-17T01:41:31.200Z,99.99
2017-01-17T01:42:12.965Z,99.99
2017-01-17T01:44:33.583Z,99.99
2017-01-17T01:45:15.207Z,99.99
2017-01-17T01:45:56.743Z,99.99
2017-01-17T01:46:38.488Z,99.99
2017-01-17T01:47:20.218Z,99.99
2017-01-17T01:48:01.944Z,99.99
2017-01-17T01:48:43.701Z,99.99
2017-01-17T01:50:38.482Z,99.99
2017-01-17T01:51:20.196Z,99.99
2017-01-17T01:53:09.649Z,99.99
2017-01-17T01:53:51.347Z,99.99
2017-01-17T01:54:33.105Z,99.99
2017-01-17T01:55:14.829Z,99.99
2017-01-17T01:55:56.537Z,99.99
2017-01-17T01:57:51.289Z,99.99
2017-01-17T01:58:32.827Z,99.99
2017-01-17T02:00:32.437Z,99.99
2017-01-17T02:01:12.967Z,99.99
2017-01-17T02:01:53.500Z,99.99
2017-01-17T02:02:34.030Z,99.99
2017-01-17T02:03:14.555Z,99.99
2017-01-17T02:03:55.088Z,99.99
2017-01-17T02:04:35.612Z,99.99
2017-01-17T02:05:16.139Z,99.99
2017-01-17T02:05:56.662Z,99.99
2017-01-17T02:06:37.207Z,99.99
2017-01-17T02:07:17.732Z,99.99
2017-01-17T02:07:58.258Z,99.99
2017-01-17T02:08:38.786Z,99.99
2017-01-17T02:09:19.311Z,99.99
2017-01-17T02:09:59.836Z,99.99
2017-01-17T02:10:40.364Z,99.99
2017-01-17T02:11:20.909Z,99.99
2017-01-17T02:12:01.414Z,99.84
2017-01-17T02:12:41.943Z,99.99
2017-01-17T02:13:22.464Z,99.99
2017-01-17T02:14:02.993Z,99.99
2017-01-17T02:14:43.514Z,99.99
2017-01-17T02:15:24.047Z,99.99
2017-01-17T02:16:04.564Z,99.99
2017-01-17T02:16:45.095Z,99.37
2017-01-17T02:17:25.616Z,99.27
2017-01-17T02:18:06.144Z,99.08
2017-01-17T02:18:46.675Z,99.46
2017-01-17T02:19:27.210Z,99.46
2017-01-17T02:20:07.741Z,99.08
2017-01-17T02:20:48.267Z,98.9
2017-01-17T02:21:28.797Z,98.71
2017-01-17T02:22:09.326Z,99.18
2017-01-17T02:22:49.861Z,99.27
2017-01-17T02:23:30.385Z,99.27
2017-01-17T02:24:10.910Z,99.18
2017-01-17T02:24:51.437Z,99.18
2017-01-17T02:25:31.968Z,99.27
2017-01-17T02:26:12.497Z,98.8
2017-01-17T02:26:53.025Z,99.27
2017-01-17T02:27:33.550Z,98.71
2017-01-17T02:28:14.078Z,99.46
2017-01-17T02:28:54.615Z,98.71
2017-01-17T02:29:35.144Z,99.08
2017-01-17T02:30:15.670Z,98.71
2017-01-17T02:30:56.188Z,99.37
2017-01-17T02:31:36.719Z,99.18
2017-01-17T02:32:17.248Z,99.08
2017-01-17T02:32:57.771Z,99.46
2017-01-17T02:33:38.293Z,99.18
2017-01-17T02:34:18.817Z,99.22
2017-01-17T02:34:59.342Z,98.99
2017-01-17T02:35:39.871Z,99.08
2017-01-17T02:36:20.402Z,99.18
2017-01-17T02:37:00.935Z,99.08
2017-01-17T02:37:41.467Z,98.04
2017-01-17T02:38:21.995Z,99.08
2017-01-17T02:39:02.526Z,97.95
2017-01-17T02:39:43.057Z,99.08
2017-01-17T02:40:23.578Z,97.95
2017-01-17T02:41:04.112Z,99.08
2017-01-17T02:41:44.632Z,97.85
2017-01-17T02:42:25.159Z,98.14
2017-01-17T02:43:05.693Z,97.8
2017-01-17T02:43:46.222Z,98.28
2017-01-17T02:44:26.753Z,97.8
2017-01-17T02:45:07.279Z,97.9
2017-01-17T02:45:47.815Z,98.04
2017-01-17T02:46:28.344Z,97.8
2017-01-17T02:47:08.875Z,99.13
2017-01-17T02:47:49.409Z,99.32
2017-01-17T02:48:29.930Z,98.94
2017-01-17T02:49:10.453Z,98.94
2017-01-17T02:49:50.988Z,99.03
2017-01-17T02:50:31.613Z,98.94
2017-01-17T02:51:12.137Z,99.03
2017-01-17T02:51:52.663Z,99.22
2017-01-17T02:52:33.244Z,99.03
2017-01-17T02:53:13.884Z,99.13
2017-01-17T02:53:54.411Z,99.03
2017-01-17T02:54:34.936Z,99.03
2017-01-17T02:55:15.467Z,99.03
2017-01-17T02:55:55.991Z,99.03
2017-01-17T02:56:36.518Z,99.03
2017-01-17T02:57:17.051Z,99.03
2017-01-17T02:57:57.584Z,99.03
2017-01-17T02:58:38.114Z,99.03
2017-01-17T02:59:18.642Z,99.03
2017-01-17T02:59:59.170Z,99.22
2017-01-17T03:00:39.695Z,99.22
2017-01-17T03:01:20.229Z,98.94
2017-01-17T03:02:00.756Z,99.22
2017-01-17T03:02:41.285Z,99.41
2017-01-17T03:03:21.817Z,99.41
2017-01-17T03:04:02.343Z,99.22
2017-01-17T03:04:42.872Z,99.41
2017-01-17T03:05:23.396Z,99.13
2017-01-17T03:06:03.923Z,99.13
2017-01-17T03:06:44.455Z,99.13
2017-01-17T03:07:24.987Z,99.13
2017-01-17T03:08:05.518Z,98.84
2017-01-17T03:08:46.046Z,98.84
2017-01-17T03:09:26.575Z,99.22
2017-01-17T03:10:07.107Z,99.22
2017-01-17T03:10:47.640Z,99.13
2017-01-17T03:11:28.175Z,99.22
2017-01-17T03:12:08.698Z,99.13
2017-01-17T03:12:49.222Z,99.22
2017-01-17T03:13:29.753Z,98.94
2017-01-17T03:14:10.279Z,98.94
2017-01-17T03:14:50.801Z,98.84
2017-01-17T03:15:31.332Z,98.94
2017-01-17T03:16:11.853Z,98.94
2017-01-17T03:16:52.379Z,99.03
2017-01-17T03:17:32.903Z,98.84
2017-01-17T03:18:13.430Z,98.65
2017-01-17T03:18:53.961Z,98.84
2017-01-17T03:19:34.495Z,98.84
2017-01-17T03:20:15.025Z,98.75
2017-01-17T03:20:55.550Z,99.51
2017-01-17T03:21:36.074Z,98.94
2017-01-17T03:22:16.603Z,98.94
2017-01-17T03:22:57.132Z,99.03
2017-01-17T03:23:37.659Z,98.75
2017-01-17T03:24:18.194Z,98.75
2017-01-17T03:24:58.722Z,99.32
2017-01-17T03:25:39.251Z,99.41
2017-01-17T03:26:19.772Z,99.41
2017-01-17T03:27:00.308Z,99.41
2017-01-17T03:27:40.844Z,99.51
2017-01-17T03:28:21.377Z,99.51
2017-01-17T03:29:01.909Z,99.03
2017-01-17T03:29:42.442Z,99.22
2017-01-17T03:30:22.965Z,99.03
2017-01-17T03:31:03.502Z,99.22
2017-01-17T03:31:44.030Z,99.22
2017-01-17T03:32:24.558Z,99.13
2017-01-17T03:33:05.088Z,99.13
2017-01-17T03:33:45.623Z,99.03
2017-01-17T03:34:26.154Z,99.03
2017-01-17T03:35:06.681Z,99.13
2017-01-17T03:35:47.211Z,99.03
2017-01-17T03:36:27.738Z,99.22
2017-01-17T03:37:08.264Z,99.22
2017-01-17T03:37:48.795Z,99.22
2017-01-17T03:38:29.325Z,99.03
2017-01-17T03:39:09.848Z,99.03
2017-01-17T03:39:50.377Z,98.65
2017-01-17T03:40:30.904Z,99.32
2017-01-17T03:41:11.428Z,98.84
2017-01-17T03:41:51.957Z,98.65
2017-01-17T03:42:32.483Z,98.65
2017-01-17T03:43:13.014Z,98.84
2017-01-17T03:43:53.545Z,98.84
2017-01-17T03:44:34.068Z,99.22
2017-01-17T03:45:14.589Z,99.22
2017-01-17T03:45:55.119Z,99.13
2017-01-17T03:46:35.647Z,98.84
2017-01-17T03:47:16.180Z,99.22
2017-01-17T03:47:56.708Z,99.03
2017-01-17T03:48:37.872Z,99.03
2017-01-17T03:49:18.403Z,99.22
2017-01-17T03:49:58.934Z,98.84
2017-01-17T03:50:39.461Z,99.03
2017-01-17T03:51:19.989Z,99.32
2017-01-17T03:52:00.526Z,98.84
2017-01-17T03:52:41.055Z,98.94
2017-01-17T03:53:21.586Z,99.22
2017-01-17T03:54:02.117Z,99.03
2017-01-17T03:54:42.653Z,99.22
2017-01-17T03:55:23.183Z,99.22
2017-01-17T03:56:03.716Z,99.13
2017-01-17T03:56:44.243Z,99.32
2017-01-17T03:57:24.775Z,98.94
2017-01-17T03:58:05.309Z,98.94
2017-01-17T03:58:45.841Z,99.13
2017-01-17T03:59:26.362Z,99.41
2017-01-17T04:00:06.891Z,99.22
2017-01-17T04:00:47.420Z,99.41
2017-01-17T04:01:27.953Z,99.41
2017-01-17T04:02:08.487Z,99.32
2017-01-17T04:02:49.014Z,99.51
2017-01-17T04:03:29.544Z,99.41
2017-01-17T04:04:10.073Z,99.6
2017-01-17T04:04:50.600Z,99.03
2017-01-17T04:05:31.137Z,99.51
2017-01-17T04:06:11.667Z,99.6
2017-01-17T04:06:52.194Z,99.03
2017-01-17T04:07:32.726Z,99.6
2017-01-17T04:08:13.251Z,99.03
2017-01-17T04:08:53.785Z,99.6
2017-01-17T04:09:34.318Z,99.03
2017-01-17T04:10:14.847Z,99.13
2017-01-17T04:10:55.376Z,99.99
2017-01-17T04:11:35.904Z,99.98
2017-01-17T04:12:16.439Z,99.99
2017-01-17T04:12:56.968Z,99.22
2017-01-17T04:13:37.498Z,99.18
2017-01-17T04:14:18.029Z,99.27
2017-01-17T04:14:58.557Z,99.18
2017-01-17T04:15:39.091Z,99.18
2017-01-17T04:16:19.626Z,99.27
2017-01-17T04:17:00.152Z,99.08
2017-01-17T04:17:40.686Z,99.27
2017-01-17T04:18:21.275Z,99.65
2017-01-17T04:19:01.768Z,99.46
2017-01-17T04:19:42.299Z,99.27
2017-01-17T04:20:22.839Z,99.27
2017-01-17T04:21:03.363Z,99.65
2017-01-17T04:21:43.904Z,99.55
2017-01-17T04:22:24.433Z,99.46
2017-01-17T04:23:04.964Z,99.65
2017-01-17T04:23:45.501Z,99.55
2017-01-17T04:24:26.013Z,99.65
2017-01-17T04:25:06.548Z,99.65
2017-01-17T04:25:47.087Z,99.46
2017-01-17T04:26:27.614Z,99.18
2017-01-17T04:27:08.145Z,99.46
2017-01-17T04:27:48.678Z,99.55
2017-01-17T04:28:29.203Z,99.27
2017-01-17T04:29:09.727Z,99.65
2017-01-17T04:29:50.267Z,99.37
2017-01-17T04:30:30.799Z,99.37
2017-01-17T04:31:11.330Z,99.55
2017-01-17T04:31:51.857Z,99.27
2017-01-17T04:32:32.389Z,99.46
2017-01-17T04:33:12.918Z,99.55
2017-01-17T04:33:53.454Z,99.27
2017-01-17T04:34:33.981Z,99.46
2017-01-17T04:35:14.508Z,99.65
2017-01-17T04:35:55.026Z,99.55
2017-01-17T04:36:35.559Z,99.18
2017-01-17T04:37:16.091Z,99.08
2017-01-17T04:37:56.620Z,99.08
2017-01-17T04:38:37.146Z,99.08
2017-01-17T04:40:31.148Z,98.9
2017-01-17T04:41:11.677Z,99.08
2017-01-17T04:41:52.202Z,98.9
2017-01-17T04:42:32.731Z,98.9
2017-01-17T04:43:13.260Z,98.71
2017-01-17T04:43:53.775Z,99.27
2017-01-17T04:44:34.302Z,99.18
2017-01-17T04:45:14.829Z,99.18
2017-01-17T04:45:55.362Z,99.18
2017-01-17T04:46:35.891Z,99.08
2017-01-17T04:47:16.455Z,99.27
2017-01-17T04:47:57.445Z,99.27
2017-01-17T04:48:37.997Z,99.27
2017-01-17T04:49:18.530Z,99.08
2017-01-17T04:49:59.056Z,98.99
2017-01-17T04:50:39.586Z,99.37
2017-01-17T04:51:20.112Z,99.37
2017-01-17T04:52:00.650Z,99.37
2017-01-17T04:52:41.202Z,99.18
2017-01-17T04:53:21.766Z,99.37
2017-01-17T04:54:02.302Z,99.37
2017-01-17T04:54:42.836Z,99.37
2017-01-17T04:55:23.361Z,99.37
2017-01-17T04:56:03.898Z,99.27
2017-01-17T04:56:44.430Z,99.27
2017-01-17T04:57:24.953Z,99.37
2017-01-17T04:58:05.484Z,98.9
2017-01-17T04:58:46.013Z,99.08
2017-01-17T04:59:26.818Z,98.99
2017-01-17T05:00:07.355Z,99.08
2017-01-17T05:00:47.928Z,99.08
2017-01-17T05:01:28.463Z,98.9
2017-01-17T05:02:08.985Z,98.9
2017-01-17T05:02:49.564Z,99.08
2017-01-17T05:03:30.095Z,99.27
2017-01-17T05:04:10.635Z,99.08
2017-01-17T05:04:51.151Z,99.08
2017-01-17T05:05:31.739Z,99.08
2017-01-17T05:06:12.272Z,99.74
2017-01-17T05:06:52.803Z,99.37
2017-01-17T05:07:33.334Z,98.9
2017-01-17T05:08:13.874Z,99.18
2017-01-17T05:08:54.403Z,99.18
2017-01-17T05:09:34.930Z,98.8
2017-01-17T05:10:15.461Z,98.8
2017-01-17T05:10:55.991Z,99.74
2017-01-17T05:11:36.525Z,99.74
2017-01-17T05:12:17.057Z,99.74
2017-01-17T05:12:57.581Z,98.8
2017-01-17T05:13:38.202Z,99.27
2017-01-17T05:14:18.732Z,99.08
2017-01-17T05:14:59.262Z,99.08
2017-01-17T05:15:39.788Z,99.27
2017-01-17T05:16:20.316Z,99.27
2017-01-17T05:17:00.851Z,98.99
2017-01-17T05:17:41.383Z,98.99
2017-01-17T05:18:21.912Z,99.65
2017-01-17T05:19:02.435Z,98.99
2017-01-17T05:19:42.965Z,98.9
2017-01-17T05:20:23.495Z,99.55
2017-01-17T05:21:04.032Z,98.9
2017-01-17T05:21:44.568Z,99.08
2017-01-17T05:22:25.089Z,98.99
2017-01-17T05:23:05.617Z,99.46
2017-01-17T05:23:46.145Z,99.46
2017-01-17T05:24:26.679Z,99.37
2017-01-17T05:25:07.210Z,99.27
2017-01-17T05:25:47.738Z,99.37
2017-01-17T05:26:28.268Z,99.55
2017-01-17T05:27:08.797Z,98.71
2017-01-17T05:27:49.332Z,99.46
2017-01-17T05:28:29.862Z,99.37
2017-01-17T05:29:10.390Z,99.46
2017-01-17T05:29:50.920Z,99.46
2017-01-17T05:30:31.456Z,99.46
2017-01-17T05:31:11.988Z,98.9
2017-01-17T05:31:52.514Z,99.46
2017-01-17T05:32:33.043Z,98.9
2017-01-17T05:33:13.573Z,99.46
2017-01-17T05:33:54.087Z,99.27
2017-01-17T05:34:34.607Z,99.46
2017-01-17T05:35:15.133Z,99.37
2017-01-17T05:35:55.657Z,99.37
2017-01-17T05:36:36.189Z,99.46
2017-01-17T05:37:16.717Z,99.27
2017-01-17T05:37:57.248Z,99.37
2017-01-17T05:38:37.773Z,98.9
2017-01-17T05:39:18.304Z,98.99
2017-01-17T05:39:58.842Z,98.99
2017-01-17T05:40:39.372Z,98.8
2017-01-17T05:41:19.925Z,98.99
2017-01-17T05:42:00.465Z,99.37
2017-01-17T05:42:40.970Z,99.27
2017-01-17T05:43:21.506Z,99.74
2017-01-17T05:44:02.041Z,99.46
2017-01-17T05:44:42.572Z,99.46
2017-01-17T05:45:23.104Z,98.99
2017-01-17T05:46:03.640Z,99.08
2017-01-17T05:46:44.173Z,99.46
2017-01-17T05:47:24.700Z,99.37
2017-01-17T05:48:05.235Z,99.08
2017-01-17T05:48:45.761Z,99.27
2017-01-17T05:49:26.290Z,98.9
2017-01-17T05:50:06.819Z,99.08
2017-01-17T05:50:47.350Z,99.18
2017-01-17T05:51:27.878Z,99.27
2017-01-17T05:52:08.408Z,99.18
2017-01-17T05:52:48.936Z,99.08
2017-01-17T05:53:29.468Z,99.37
2017-01-17T05:54:10.002Z,99.13
2017-01-17T05:54:50.530Z,99.13
2017-01-17T05:55:31.055Z,99.37
2017-01-17T05:56:11.585Z,98.75
2017-01-17T05:56:52.115Z,98.9
2017-01-17T05:57:32.648Z,98.84
2017-01-17T05:58:13.175Z,99.22
2017-01-17T05:58:53.707Z,98.94
2017-01-17T05:59:34.238Z,99.03
2017-01-17T06:00:14.765Z,99.51
2017-01-17T06:00:55.301Z,99.51
2017-01-17T06:01:35.833Z,99.6
2017-01-17T06:02:16.358Z,99.6
2017-01-17T06:02:56.889Z,99.6
2017-01-17T06:03:37.421Z,99.6
2017-01-17T06:04:17.945Z,99.6
2017-01-17T06:04:58.461Z,99.6
2017-01-17T06:05:38.993Z,99.6
2017-01-17T06:06:19.525Z,99.6
2017-01-17T06:07:00.054Z,99.6
2017-01-17T06:07:40.580Z,99.6
2017-01-17T06:08:21.113Z,99.6
2017-01-17T06:09:01.642Z,99.69
2017-01-17T06:09:42.169Z,99.22
2017-01-17T06:10:22.712Z,99.41
2017-01-17T06:11:03.239Z,99.41
2017-01-17T06:11:43.767Z,99.13
2017-01-17T06:12:24.291Z,99.41
2017-01-17T06:13:04.821Z,99.41
2017-01-17T06:13:45.356Z,99.41
2017-01-17T06:14:25.880Z,99.41
2017-01-17T06:15:06.410Z,99.41
2017-01-17T06:15:46.944Z,99.41
2017-01-17T06:16:27.473Z,99.13
2017-01-17T06:17:08.003Z,99.03
2017-01-17T06:17:48.530Z,99.13
2017-01-17T06:18:29.094Z,99.13
2017-01-17T06:19:09.566Z,99.99
2017-01-17T06:19:50.102Z,99.88
2017-01-17T06:20:30.613Z,99.98
2017-01-17T06:21:11.146Z,99.99
2017-01-17T06:21:51.670Z,99.99
2017-01-17T06:22:32.197Z,99.98
2017-01-17T06:23:12.720Z,99.99
2017-01-17T06:23:53.251Z,99.88
2017-01-17T06:24:33.784Z,99.99
2017-01-17T06:25:14.314Z,99.99
2017-01-17T06:25:54.842Z,99.99
2017-01-17T06:26:35.372Z,99.99
2017-01-17T06:27:15.891Z,99.99
2017-01-17T06:27:56.422Z,99.99
2017-01-17T06:28:36.950Z,99.98
2017-01-17T06:29:17.475Z,99.99
2017-01-17T06:29:58.004Z,99.88
2017-01-17T06:30:38.527Z,99.99
2017-01-17T06:31:19.065Z,99.88
2017-01-17T06:31:59.584Z,99.99
2017-01-17T06:32:40.123Z,99.99
2017-01-17T06:33:20.644Z,99.99
2017-01-17T06:34:01.183Z,99.99
2017-01-17T06:34:41.717Z,99.99
2017-01-17T06:35:22.253Z,99.98
2017-01-17T06:36:02.785Z,99.88
2017-01-17T06:36:43.310Z,99.98
2017-01-17T06:37:23.840Z,99.99
2017-01-17T06:38:04.374Z,99.98
2017-01-17T06:38:44.907Z,99.99
2017-01-17T06:39:25.427Z,99.99
2017-01-17T06:40:06.002Z,99.99
2017-01-17T06:40:46.535Z,99.99
2017-01-17T06:41:27.097Z,99.99
2017-01-17T06:42:07.578Z,99.99
2017-01-17T06:42:48.108Z,99.88
2017-01-17T06:43:28.632Z,99.99
2017-01-17T06:44:09.161Z,99.99
2017-01-17T06:44:49.693Z,99.99
2017-01-17T06:45:30.222Z,99.99
2017-01-17T06:46:10.755Z,99.99
2017-01-17T06:46:51.282Z,99.99
2017-01-17T06:47:31.812Z,99.99
2017-01-17T06:48:12.343Z,99.69
2017-01-17T06:48:52.958Z,99.79
2017-01-17T06:49:33.468Z,99.98
2017-01-17T06:50:14.002Z,99.98
2017-01-17T06:50:54.535Z,99.99
2017-01-17T06:51:35.065Z,99.79
2017-01-17T06:52:15.599Z,99.98
2017-01-17T06:52:56.150Z,99.99
2017-01-17T06:53:36.669Z,99.99
2017-01-17T06:54:17.211Z,99.99
2017-01-17T06:54:57.740Z,99.99
2017-01-17T06:55:38.269Z,99.99
2017-01-17T06:56:18.808Z,99.99
2017-01-17T06:56:59.351Z,99.99
2017-01-17T06:57:39.899Z,99.99
2017-01-17T06:58:20.423Z,99.99
2017-01-17T06:59:00.952Z,99.99
2017-01-17T06:59:41.475Z,99.99
2017-01-17T07:00:22.010Z,99.99
2017-01-17T07:01:02.541Z,99.99
2017-01-17T07:01:43.076Z,99.99
2017-01-17T07:02:23.600Z,99.99
2017-01-17T07:03:04.131Z,99.79
2017-01-17T07:03:44.664Z,99.98
2017-01-17T07:04:25.190Z,99.98
2017-01-17T07:05:05.727Z,99.98
2017-01-17T07:05:46.243Z,99.79
2017-01-17T07:06:26.782Z,99.99
2017-01-17T07:07:07.313Z,99.99
2017-01-17T07:07:47.840Z,99.99
2017-01-17T07:08:28.363Z,99.99
2017-01-17T07:09:08.893Z,99.99
2017-01-17T07:09:49.427Z,99.99
2017-01-17T07:10:29.951Z,99.99
2017-01-17T07:11:10.481Z,99.99
2017-01-17T07:11:51.012Z,99.88
2017-01-17T07:12:31.546Z,99.99
2017-01-17T07:13:12.076Z,99.88
2017-01-17T07:13:52.590Z,99.99
2017-01-17T07:14:33.121Z,99.88
2017-01-17T07:15:13.653Z,99.99
2017-01-17T07:15:54.186Z,99.98
2017-01-17T07:16:34.717Z,99.99
2017-01-17T07:17:15.244Z,99.99
2017-01-17T07:17:55.776Z,99.99
2017-01-17T07:18:36.312Z,99.99
2017-01-17T07:19:16.836Z,99.99
2017-01-17T07:19:57.361Z,99.98
2017-01-17T07:20:37.886Z,99.99
2017-01-17T07:21:18.418Z,99.88
2017-01-17T07:21:58.950Z,99.99
2017-01-17T07:22:39.479Z,99.99
2017-01-17T07:23:20.007Z,99.93
2017-01-17T07:24:00.544Z,99.99
2017-01-17T07:24:41.103Z,99.99
2017-01-17T07:25:21.626Z,99.99
2017-01-17T07:26:02.161Z,99.99
2017-01-17T07:26:42.691Z,99.99
2017-01-17T07:27:23.229Z,99.93
2017-01-17T07:28:03.763Z,99.99
2017-01-17T07:28:44.291Z,99.99
2017-01-17T07:29:24.823Z,99.18
2017-01-17T07:30:05.372Z,99.08
2017-01-17T07:30:45.898Z,99.18
2017-01-17T07:31:26.423Z,99.99
2017-01-17T07:32:06.948Z,99.99
2017-01-17T07:32:47.482Z,99.99
2017-01-17T07:33:28.014Z,99.99
2017-01-17T07:34:08.561Z,99.99
2017-01-17T07:34:49.095Z,99.99
2017-01-17T07:35:29.674Z,99.99
2017-01-17T07:36:10.209Z,99.18
2017-01-17T07:36:50.742Z,99.99
2017-01-17T07:37:31.275Z,99.99
2017-01-17T07:38:11.799Z,99.08
2017-01-17T07:38:52.338Z,99.27
2017-01-17T07:39:32.876Z,99.08
2017-01-17T07:40:13.409Z,99.27
2017-01-17T07:40:53.946Z,99.18
2017-01-17T07:41:34.472Z,99.27
2017-01-17T07:42:15.001Z,99.99
2017-01-17T07:42:55.538Z,99.37
2017-01-17T07:43:36.073Z,99.18
2017-01-17T07:44:16.606Z,99.18
2017-01-17T07:44:57.141Z,99.65
2017-01-17T07:45:37.696Z,99.27
2017-01-17T07:46:18.225Z,99.65
2017-01-17T07:46:58.754Z,99.55
2017-01-17T07:47:39.295Z,99.08
2017-01-17T07:48:19.821Z,99.55
2017-01-17T07:49:00.340Z,99.18
2017-01-17T07:49:40.868Z,99.08
2017-01-17T07:50:21.398Z,99.08
2017-01-17T07:51:01.932Z,99.84
2017-01-17T07:51:42.470Z,99.27
2017-01-17T07:52:23.007Z,99.27
2017-01-17T07:53:03.529Z,99.18
2017-01-17T07:53:44.067Z,99.08
2017-01-17T07:54:24.586Z,99.08
2017-01-17T07:55:05.122Z,99.27
2017-01-17T07:55:45.655Z,99.46
2017-01-17T07:56:26.181Z,99.55
2017-01-17T07:57:06.716Z,99.08
2017-01-17T07:57:47.240Z,99.65
2017-01-17T07:58:27.771Z,99.65
2017-01-17T07:59:08.304Z,99.55
2017-01-17T07:59:48.827Z,99.08
2017-01-17T08:00:29.370Z,99.27
2017-01-17T08:01:09.900Z,99.18
2017-01-17T08:01:50.445Z,99.18
2017-01-17T08:02:30.978Z,99.27
2017-01-17T08:03:11.520Z,99.99
2017-01-17T08:03:52.038Z,99.99
2017-01-17T08:04:32.571Z,99.99
2017-01-17T08:05:13.106Z,99.99
2017-01-17T08:05:53.632Z,99.99
2017-01-17T08:06:34.173Z,99.99
2017-01-17T08:07:14.709Z,99.99
2017-01-17T08:07:55.237Z,99.99
2017-01-17T08:08:35.779Z,99.99
2017-01-17T08:09:16.309Z,99.99
2017-01-17T08:09:56.839Z,99.99
2017-01-17T08:10:37.372Z,99.99
2017-01-17T08:11:17.901Z,99.99
2017-01-17T08:11:58.523Z,99.99
2017-01-17T08:12:39.377Z,99.99
2017-01-17T08:13:20.080Z,99.79
2017-01-17T08:14:01.308Z,99.98
2017-01-17T08:14:42.327Z,99.69
2017-01-17T08:15:23.316Z,99.84
2017-01-17T08:16:04.642Z,99.79
2017-01-17T08:16:45.513Z,99.79
2017-01-17T08:17:26.816Z,99.99
2017-01-17T08:18:08.010Z,99.84
2017-01-17T08:18:48.847Z,99.99
2017-01-17T08:19:29.857Z,99.84
2017-01-17T08:20:10.828Z,99.84
2017-01-17T08:20:51.493Z,99.99
2017-01-17T08:21:32.046Z,99.99
2017-01-17T08:22:12.586Z,99.84
2017-01-17T08:22:53.121Z,99.99
2017-01-17T08:23:33.641Z,99.99
2017-01-17T08:24:14.170Z,99.99
2017-01-17T08:24:54.706Z,99.74
2017-01-17T08:25:35.232Z,99.99
2017-01-17T08:26:15.763Z,99.99
2017-01-17T08:26:56.283Z,99.74
2017-01-17T08:27:36.806Z,99.99
2017-01-17T08:28:17.339Z,99.99
2017-01-17T08:28:57.886Z,99.84
2017-01-17T08:29:38.409Z,99.99
2017-01-17T08:30:18.944Z,99.99
2017-01-17T08:30:59.477Z,99.99
2017-01-17T08:31:40.005Z,99.84
2017-01-17T08:32:20.537Z,99.99
2017-01-17T08:33:01.072Z,99.99
2017-01-17T08:33:41.598Z,99.84
2017-01-17T08:34:22.135Z,99.99
2017-01-17T08:35:02.658Z,99.84
2017-01-17T08:35:43.189Z,99.84
2017-01-17T08:36:23.721Z,99.99
2017-01-17T08:37:04.250Z,99.99
2017-01-17T08:37:44.779Z,99.99
2017-01-17T08:38:25.305Z,99.99
2017-01-17T08:39:05.867Z,99.99
2017-01-17T08:39:46.347Z,99.99
2017-01-17T08:40:26.867Z,99.99
2017-01-17T08:41:07.400Z,99.84
2017-01-17T08:41:47.935Z,99.99
2017-01-17T08:42:28.469Z,99.99
2017-01-17T08:43:09.001Z,99.84
2017-01-17T08:43:49.532Z,99.99
2017-01-17T08:44:30.060Z,99.93
2017-01-17T08:45:10.593Z,99.99
2017-01-17T08:45:51.123Z,99.93
2017-01-17T08:46:31.655Z,99.93
2017-01-17T08:47:12.183Z,99.93
2017-01-17T08:47:52.723Z,99.99
2017-01-17T08:48:33.254Z,99.99
2017-01-17T08:49:13.789Z,99.99
2017-01-17T08:49:54.313Z,99.99
2017-01-17T08:50:34.852Z,99.99
2017-01-17T08:51:15.382Z,99.93
2017-01-17T08:51:55.912Z,99.99
2017-01-17T08:52:36.447Z,99.99
2017-01-17T08:53:16.982Z,99.99
2017-01-17T08:53:57.510Z,99.99
2017-01-17T08:54:38.042Z,99.99
2017-01-17T08:55:18.579Z,99.99
2017-01-17T08:55:59.115Z,99.99
2017-01-17T08:56:39.638Z,99.99
2017-01-17T08:57:20.170Z,99.18
2017-01-17T08:58:00.703Z,99.27
2017-01-17T08:58:41.227Z,99.27
2017-01-17T08:59:21.760Z,99.27
2017-01-17T09:00:02.286Z,99.46
2017-01-17T09:00:42.812Z,99.46
2017-01-17T09:01:23.347Z,99.18
2017-01-17T09:02:03.883Z,99.65
2017-01-17T09:02:44.418Z,99.7
2017-01-17T09:03:24.956Z,99.51
2017-01-17T09:04:05.491Z,99.41
2017-01-17T09:04:46.014Z,99.13
2017-01-17T09:05:26.541Z,99.04
2017-01-17T09:06:07.078Z,99.22
2017-01-17T09:06:47.636Z,98.94
2017-01-17T09:07:28.167Z,99.7
2017-01-17T09:08:08.708Z,99.51
2017-01-17T09:08:49.241Z,98.94
2017-01-17T09:09:29.775Z,98.85
2017-01-17T09:10:10.304Z,99.22
2017-01-17T09:10:50.837Z,98.94
2017-01-17T09:11:31.369Z,98.94
2017-01-17T09:12:11.901Z,99.32
2017-01-17T09:12:52.438Z,99.41
2017-01-17T09:13:32.971Z,99.13
2017-01-17T09:14:13.505Z,99.04
2017-01-17T09:14:54.049Z,97.91
2017-01-17T09:15:34.576Z,98.1
2017-01-17T09:16:15.108Z,98.19
2017-01-17T09:16:55.665Z,98.19
2017-01-17T09:17:36.195Z,98.75
2017-01-17T09:18:16.721Z,98.66
2017-01-17T09:18:57.258Z,98.38
2017-01-17T09:19:37.789Z,98.38
2017-01-17T09:20:18.325Z,97.91
2017-01-17T09:20:58.859Z,97.67
2017-01-17T09:21:39.400Z,98.19